createdAt,value
2022-08-17T05:45:54.438Z,33.00
2022-08-17T05:51:17.814Z,30.83
2022-08-17T05:56:30.111Z,33.25
2022-08-17T06:01:49.276Z,33.03
2022-08-17T06:06:59.305Z,33.30
2022-08-17T06:12:26.060Z,29.95
2022-08-17T06:17:31.308Z,31.67
2022-08-17T06:22:37.419Z,31.77
2022-08-17T06:27:45.323Z,30.55
2022-08-17T06:32:51.543Z,30.60
2022-08-17T06:38:04.426Z,31.63
2022-08-17T06:43:26.851Z,30.90
2022-08-17T06:48:38.861Z,31.35
2022-08-17T06:53:46.569Z,31.42
2022-08-17T06:58:49.988Z,31.77
2022-08-17T07:04:00.475Z,32.10
2022-08-17T07:09:18.178Z,34.53
2022-08-17T07:14:32.088Z,31.35
2022-08-17T07:19:40.646Z,31.08
2022-08-17T07:24:50.953Z,31.60
2022-08-17T07:29:58.154Z,32.53
2022-08-17T07:35:16.106Z,33.78
2022-08-17T07:40:30.012Z,33.60
2022-08-17T07:45:52.396Z,32.78
2022-08-17T07:50:57.299Z,31.88
2022-08-17T07:56:00.482Z,31.10
2022-08-17T08:01:07.632Z,29.95
2022-08-17T08:06:22.346Z,29.52
2022-08-17T08:11:33.466Z,26.90
2022-08-17T08:16:36.793Z,25.88
2022-08-17T08:21:48.102Z,26.67
2022-08-17T08:27:04.264Z,30.65
2022-08-17T08:32:16.395Z,28.15
2022-08-17T08:37:39.085Z,23.85
2022-08-17T08:42:53.614Z,21.98
2022-08-17T08:48:22.709Z,22.17
2022-08-17T08:53:37.274Z,24.40
2022-08-17T08:58:50.457Z,23.25
2022-08-17T09:04:24.734Z,23.63
2022-08-17T09:09:42.824Z,25.67
2022-08-17T09:14:55.498Z,27.13
2022-08-17T09:20:04.841Z,19.15
2022-08-17T09:25:11.939Z,19.98
2022-08-17T09:30:15.840Z,20.13
2022-08-17T09:35:22.800Z,24.05
2022-08-17T09:40:32.052Z,22.40
2022-08-17T09:45:42.609Z,22.55
2022-08-17T09:51:03.798Z,19.95
2022-08-17T09:56:27.253Z,19.38
2022-08-17T10:01:36.793Z,18.25
2022-08-17T10:06:49.243Z,17.65
2022-08-17T10:12:17.787Z,18.42
2022-08-17T10:17:28.886Z,19.33
2022-08-17T10:22:58.056Z,18.08
2022-08-17T10:28:11.740Z,18.95
2022-08-17T10:33:27.701Z,19.17
2022-08-17T10:38:40.571Z,21.10
2022-08-17T10:44:36.777Z,20.83
2022-08-17T10:49:30.286Z,22.20
2022-08-17T10:54:58.742Z,20.55
2022-08-17T11:00:08.188Z,20.95
2022-08-17T11:05:41.508Z,20.80
2022-08-17T11:11:15.794Z,18.00
2022-08-17T11:16:39.063Z,19.92
2022-08-17T11:22:02.270Z,18.55
2022-08-17T11:27:12.133Z,20.42
2022-08-17T11:32:33.503Z,19.10
2022-08-17T11:37:56.310Z,21.80
2022-08-17T11:43:13.573Z,21.90
2022-08-17T11:48:44.873Z,22.30
2022-08-17T11:54:30.603Z,23.80
2022-08-17T12:00:10.595Z,24.88
2022-08-17T12:05:32.384Z,26.73
2022-08-17T12:10:49.333Z,26.45
2022-08-17T12:15:54.962Z,27.95
2022-08-17T12:21:18.324Z,28.08
2022-08-17T12:26:26.092Z,29.02
2022-08-17T12:31:32.491Z,29.30
2022-08-17T12:36:37.627Z,31.52
2022-08-17T12:41:43.923Z,32.65
2022-08-17T12:46:53.247Z,31.58
2022-08-17T12:52:10.240Z,30.88
2022-08-17T12:57:16.273Z,32.00
2022-08-17T13:02:40.443Z,33.83
2022-08-17T13:07:46.599Z,34.10
2022-08-17T13:12:52.525Z,34.45
2022-08-17T13:18:03.917Z,27.35
2022-08-17T13:23:20.419Z,26.63
2022-08-17T13:28:35.692Z,24.23
2022-08-17T13:33:44.562Z,24.40
2022-08-17T13:38:51.144Z,25.45
2022-08-17T13:43:54.453Z,27.15
2022-08-17T13:49:04.851Z,27.55
2022-08-17T13:54:24.243Z,27.58
2022-08-17T13:59:53.622Z,28.38
2022-08-17T14:05:00.584Z,27.65
2022-08-17T14:10:09.222Z,26.52
2022-08-17T14:15:14.204Z,28.10
2022-08-17T14:20:20.330Z,26.88
2022-08-17T14:25:28.423Z,25.55
2022-08-17T14:30:32.012Z,26.70
2022-08-17T14:35:35.988Z,25.45
2022-08-17T14:40:41.039Z,26.70
2022-08-17T14:45:44.573Z,25.40
2022-08-17T14:50:48.024Z,25.90
2022-08-17T14:55:53.152Z,26.10
2022-08-17T15:00:56.592Z,24.85
2022-08-17T15:05:59.892Z,24.88
2022-08-17T15:11:04.893Z,24.98
2022-08-17T15:16:09.870Z,24.88
2022-08-17T15:21:14.810Z,25.58
2022-08-17T15:26:22.904Z,24.77
2022-08-17T15:31:31.704Z,23.95
2022-08-17T15:36:35.839Z,23.58
2022-08-17T15:41:40.368Z,24.27
2022-08-17T15:46:43.579Z,24.02
2022-08-17T15:51:47.108Z,24.13
2022-08-17T15:56:52.021Z,25.10
2022-08-17T16:03:14.447Z,22.25
2022-08-17T16:07:26.466Z,21.65
2022-08-17T16:12:31.333Z,22.85
2022-08-17T16:17:39.790Z,21.35
2022-08-17T16:22:46.847Z,20.70
2022-08-17T16:27:53.534Z,22.17
2022-08-17T16:32:59.573Z,21.30
2022-08-17T16:38:02.954Z,21.80
2022-08-17T16:43:10.714Z,21.15
2022-08-17T16:48:15.611Z,21.02
2022-08-17T16:53:20.164Z,18.15
2022-08-17T16:58:24.692Z,17.67
2022-08-17T17:03:30.570Z,18.08
2022-08-17T17:08:42.133Z,17.95
2022-08-17T17:13:54.384Z,18.73
2022-08-17T17:19:07.811Z,17.45
2022-08-17T17:24:16.522Z,17.90
2022-08-17T17:29:35.798Z,17.70
2022-08-17T17:35:04.558Z,15.85
2022-08-17T17:40:14.720Z,14.88
2022-08-17T17:45:23.324Z,14.98
2022-08-17T17:50:34.002Z,14.88
2022-08-17T17:55:47.540Z,17.08
2022-08-17T18:01:17.655Z,17.55
2022-08-17T18:06:32.399Z,16.33
2022-08-17T18:11:55.074Z,18.48
2022-08-17T18:17:03.968Z,19.02
2022-08-17T18:22:14.221Z,18.38
2022-08-17T18:27:24.078Z,16.38
2022-08-17T18:32:35.676Z,16.75
2022-08-17T18:37:44.902Z,19.67
2022-08-17T18:43:02.797Z,16.77
2022-08-17T18:48:18.654Z,18.52
2022-08-17T18:53:39.696Z,17.30
2022-08-17T18:58:43.272Z,15.63
2022-08-17T19:03:48.040Z,13.73
2022-08-17T19:08:51.387Z,14.25
2022-08-17T19:14:00.834Z,13.63
2022-08-17T19:19:14.508Z,15.85
2022-08-17T19:24:20.762Z,15.75
2022-08-17T19:29:31.240Z,15.90
2022-08-17T19:34:44.725Z,15.50
2022-08-17T19:39:56.091Z,16.10
2022-08-17T19:45:10.438Z,16.00
2022-08-17T19:50:22.153Z,17.10
2022-08-17T19:55:32.867Z,16.55
2022-08-17T20:00:40.791Z,15.55
2022-08-17T20:06:11.664Z,16.02
2022-08-17T20:11:24.700Z,15.68
2022-08-17T20:16:28.085Z,18.15
2022-08-17T20:21:38.067Z,13.20
2022-08-17T20:26:58.174Z,12.60
2022-08-17T20:32:26.365Z,13.85
2022-08-17T20:37:33.733Z,11.82
2022-08-17T20:42:37.762Z,13.77
2022-08-17T20:48:07.407Z,10.43
2022-08-17T20:53:13.512Z,13.75
2022-08-17T20:58:47.218Z,11.70
2022-08-17T21:03:52.670Z,12.00
2022-08-17T21:09:19.751Z,11.68
2022-08-17T21:14:58.657Z,11.57
2022-08-17T21:20:12.568Z,13.35
2022-08-17T21:25:29.505Z,11.52
2022-08-17T21:30:56.530Z,10.95
2022-08-17T21:36:27.807Z,11.98
2022-08-17T21:41:34.810Z,10.82
2022-08-17T21:46:43.016Z,10.70
2022-08-17T21:51:53.802Z,10.48
2022-08-17T21:56:57.162Z,17.50
2022-08-17T22:02:03.855Z,11.52
2022-08-17T22:07:09.441Z,11.77
2022-08-17T22:12:17.386Z,10.95
2022-08-17T22:17:23.844Z,11.35
2022-08-17T22:22:59.898Z,12.38
2022-08-17T22:28:05.568Z,10.60
2022-08-17T22:33:36.129Z,11.38
2022-08-17T22:38:40.589Z,11.57
2022-08-17T22:43:44.916Z,12.02
2022-08-17T22:48:51.779Z,11.60
2022-08-17T22:54:15.811Z,11.07
2022-08-17T22:59:40.482Z,12.75
2022-08-17T23:04:47.731Z,9.50
2022-08-17T23:09:53.248Z,11.25
2022-08-17T23:15:01.938Z,9.20
2022-08-17T23:20:09.178Z,9.90
2022-08-17T23:25:15.873Z,9.23
2022-08-17T23:30:19.222Z,9.80
2022-08-17T23:35:38.954Z,12.32
2022-08-17T23:40:44.180Z,10.30
2022-08-17T23:45:47.829Z,10.25
2022-08-17T23:50:55.392Z,10.73
2022-08-17T23:56:09.079Z,11.75
